SGAS/ASU METAR and TAF weather

Enter ICAO airport designator
Station Type Date Time Source
SGAS METAR 2022/01/26 07:00 UTC NOAA

SGAS 260700Z 03007KT CAVOK 28/21 Q1007


Station Type Date Time Source
SGAS Decoded METAR 2022/01/26 07:00 UTC NOAA

Asuncion / Aeropuerto, Paraguay (SGAS) 25-16S 057-38W 101M
Jan 26, 2022 - 02:00 AM EST / 2022.01.26 0700 UTC
Wind: from the NNE (030 degrees) at 8 MPH (7 KT):0
Visibility: greater than 7 mile(s):0
Temperature: 82 F (28 C)
Dew Point: 69 F (21 C)
Relative Humidity: 65%
Pressure (altimeter): 29.74 in. Hg (1007 hPa)
ob: SGAS 260700Z 03007KT CAVOK 28/21 Q1007
cycle: 7

Station Type Date Time Source
SGAS TAF 2022/01/26 06:31 UTC NOAA

TAF COR SGAS 260430Z 2606/2706 07007KT 9999 SCT027 TX38/2619Z TN27/2609Z PROB30 2609/2611 8000 RA BKN027
BECMG 2616/2617 VRB05KT 9999 BKN027 FEW040TCU PROB40 2618/2621 6000 TSRA BKN020 FEW040CB

Example: see airport list